sensor_id;sensor_type;location;lat;lon;timestamp;pressure;altitude;pressure_sealevel;temperature;humidity
70458;BME280;57919;56.194;95.716;2022-09-21T00:07:04;99608.56;;;7.12;71.32
70458;BME280;57919;56.194;95.716;2022-09-21T00:17:06;99629.16;;;7.26;71.12
70458;BME280;57919;56.194;95.716;2022-09-21T00:27:10;99667.34;;;7.18;70.60
70458;BME280;57919;56.194;95.716;2022-09-21T00:37:11;99670.38;;;7.26;70.17
70458;BME280;57919;56.194;95.716;2022-09-21T00:57:26;99693.03;;;7.49;68.70
70458;BME280;57919;56.194;95.716;2022-09-21T01:07:33;99702.03;;;7.88;67.61
70458;BME280;57919;56.194;95.716;2022-09-21T01:38:26;99733.88;;;8.46;64.13
70458;BME280;57919;56.194;95.716;2022-09-21T01:48:33;99737.28;;;10.39;60.76
70458;BME280;57919;56.194;95.716;2022-09-21T01:58:58;99745.41;;;10.95;56.86
70458;BME280;57919;56.194;95.716;2022-09-21T02:09:04;99754.19;;;12.06;55.10
70458;BME280;57919;56.194;95.716;2022-09-21T02:29:56;99790.06;;;11.12;52.92
70458;BME280;57919;56.194;95.716;2022-09-21T02:40:28;99799.03;;;12.51;51.62
70458;BME280;57919;56.194;95.716;2022-09-21T02:50:51;99805.47;;;13.42;49.31
70458;BME280;57919;56.194;95.716;2022-09-21T03:00:55;99806.13;;;14.03;47.52
70458;BME280;57919;56.194;95.716;2022-09-21T03:11:00;99821.16;;;14.56;46.09
70458;BME280;57919;56.194;95.716;2022-09-21T03:21:03;99821.91;;;14.48;45.39
70458;BME280;57919;56.194;95.716;2022-09-21T03:31:05;99831.41;;;15.28;43.87
70458;BME280;57919;56.194;95.716;2022-09-21T03:41:07;99841.56;;;14.98;43.48
70458;BME280;57919;56.194;95.716;2022-09-21T03:51:09;99836.91;;;15.18;42.46
70458;BME280;57919;56.194;95.716;2022-09-21T04:01:11;99850.81;;;15.52;41.48
70458;BME280;57919;56.194;95.716;2022-09-21T04:11:16;99845.16;;;15.91;39.80
70458;BME280;57919;56.194;95.716;2022-09-21T04:21:19;99849.84;;;16.52;37.36
70458;BME280;57919;56.194;95.716;2022-09-21T04:31:23;99857.03;;;15.99;36.82
70458;BME280;57919;56.194;95.716;2022-09-21T04:41:25;99843.66;;;15.51;36.07
70458;BME280;57919;56.194;95.716;2022-09-21T04:51:27;99854.53;;;16.06;34.89
70458;BME280;57919;56.194;95.716;2022-09-21T05:01:29;99854.38;;;16.25;34.77
70458;BME280;57919;56.194;95.716;2022-09-21T05:11:31;99838.28;;;17.01;34.25
70458;BME280;57919;56.194;95.716;2022-09-21T05:21:34;99829.50;;;16.90;34.36
70458;BME280;57919;56.194;95.716;2022-09-21T05:32:02;99825.13;;;17.31;34.17
70458;BME280;57919;56.194;95.716;2022-09-21T05:42:08;99822.19;;;17.24;34.51
70458;BME280;57919;56.194;95.716;2022-09-21T05:52:16;99806.94;;;18.06;34.03
70458;BME280;57919;56.194;95.716;2022-09-21T06:12:47;99809.03;;;17.28;33.24
70458;BME280;57919;56.194;95.716;2022-09-21T06:22:49;99799.88;;;16.77;32.41
70458;BME280;57919;56.194;95.716;2022-09-21T06:32:51;99794.25;;;16.17;32.21
70458;BME280;57919;56.194;95.716;2022-09-21T06:42:57;99796.97;;;15.54;33.31
70458;BME280;57919;56.194;95.716;2022-09-21T06:53:00;99791.66;;;15.80;33.50
70458;BME280;57919;56.194;95.716;2022-09-21T07:03:03;99790.91;;;15.88;32.77
70458;BME280;57919;56.194;95.716;2022-09-21T07:13:05;99771.16;;;15.76;33.30
70458;BME280;57919;56.194;95.716;2022-09-21T07:23:15;99771.31;;;16.28;32.62
70458;BME280;57919;56.194;95.716;2022-09-21T07:33:18;99777.81;;;16.70;31.47
70458;BME280;57919;56.194;95.716;2022-09-21T07:43:20;99761.81;;;16.14;31.43
70458;BME280;57919;56.194;95.716;2022-09-21T07:53:22;99763.06;;;15.84;31.45
70458;BME280;57919;56.194;95.716;2022-09-21T08:03:24;99774.06;;;15.74;31.16
70458;BME280;57919;56.194;95.716;2022-09-21T08:13:26;99785.44;;;15.88;31.47
70458;BME280;57919;56.194;95.716;2022-09-21T08:23:28;99776.16;;;15.98;31.36
70458;BME280;57919;56.194;95.716;2022-09-21T08:33:31;99769.06;;;15.88;31.16
70458;BME280;57919;56.194;95.716;2022-09-21T08:43:40;99789.97;;;15.79;31.18
70458;BME280;57919;56.194;95.716;2022-09-21T08:53:45;99790.25;;;15.58;31.13
70458;BME280;57919;56.194;95.716;2022-09-21T09:24:57;99783.97;;;14.83;31.05
70458;BME280;57919;56.194;95.716;2022-09-21T09:55:44;99788.91;;;14.61;31.64
70458;BME280;57919;56.194;95.716;2022-09-21T10:05:47;99782.19;;;14.55;32.03
70458;BME280;57919;56.194;95.716;2022-09-21T10:15:51;99792.34;;;14.63;31.67
70458;BME280;57919;56.194;95.716;2022-09-21T10:26:08;99790.66;;;14.99;32.06
70458;BME280;57919;56.194;95.716;2022-09-21T10:36:29;99794.66;;;15.32;31.95
70458;BME280;57919;56.194;95.716;2022-09-21T10:46:33;99809.25;;;15.40;32.55
70458;BME280;57919;56.194;95.716;2022-09-21T10:56:36;99798.03;;;15.16;33.12
70458;BME280;57919;56.194;95.716;2022-09-21T11:06:53;99809.44;;;15.02;33.63
70458;BME280;57919;56.194;95.716;2022-09-21T11:17:21;99800.78;;;14.69;34.00
70458;BME280;57919;56.194;95.716;2022-09-21T11:27:35;99797.53;;;14.08;35.24
70458;BME280;57919;56.194;95.716;2022-09-21T11:48:02;99821.72;;;13.22;36.92
70458;BME280;57919;56.194;95.716;2022-09-21T12:29:51;99800.03;;;12.09;39.18
70458;BME280;57919;56.194;95.716;2022-09-21T12:40:49;99803.91;;;11.95;40.57
70458;BME280;57919;56.194;95.716;2022-09-21T12:50:51;99800.13;;;11.75;41.82
70458;BME280;57919;56.194;95.716;2022-09-21T13:11:52;99779.69;;;11.82;42.35
70458;BME280;57919;56.194;95.716;2022-09-21T13:52:44;99753.25;;;11.09;45.80
70458;BME280;57919;56.194;95.716;2022-09-21T14:02:54;99756.47;;;10.70;46.72
70458;BME280;57919;56.194;95.716;2022-09-21T14:12:58;99750.44;;;10.44;46.47
70458;BME280;57919;56.194;95.716;2022-09-21T14:33:29;99750.06;;;10.37;46.91
70458;BME280;57919;56.194;95.716;2022-09-21T14:43:35;99732.38;;;10.33;47.20
70458;BME280;57919;56.194;95.716;2022-09-21T15:04:37;99714.84;;;10.03;48.62
70458;BME280;57919;56.194;95.716;2022-09-21T15:25:41;99710.72;;;9.76;48.72
70458;BME280;57919;56.194;95.716;2022-09-21T15:35:45;99730.69;;;9.62;48.85
70458;BME280;57919;56.194;95.716;2022-09-21T15:45:57;99735.34;;;9.60;49.42
70458;BME280;57919;56.194;95.716;2022-09-21T15:55:59;99695.97;;;9.45;50.01
70458;BME280;57919;56.194;95.716;2022-09-21T16:16:24;99654.41;;;9.23;50.95
70458;BME280;57919;56.194;95.716;2022-09-21T16:26:33;99663.31;;;9.13;51.43
70458;BME280;57919;56.194;95.716;2022-09-21T16:36:38;99663.59;;;8.97;51.73
70458;BME280;57919;56.194;95.716;2022-09-21T16:46:41;99646.59;;;8.84;52.62
70458;BME280;57919;56.194;95.716;2022-09-21T16:56:45;99640.53;;;8.93;52.19
70458;BME280;57919;56.194;95.716;2022-09-21T17:06:49;99607.91;;;8.96;52.11
70458;BME280;57919;56.194;95.716;2022-09-21T17:16:53;99583.34;;;8.88;52.25
70458;BME280;57919;56.194;95.716;2022-09-21T17:26:57;99565.06;;;8.80;52.70
70458;BME280;57919;56.194;95.716;2022-09-21T17:36:59;99564.25;;;8.91;52.69
70458;BME280;57919;56.194;95.716;2022-09-21T17:47:08;99571.81;;;8.86;53.13
70458;BME280;57919;56.194;95.716;2022-09-21T18:07:29;99535.81;;;8.98;52.94
70458;BME280;57919;56.194;95.716;2022-09-21T18:27:56;99506.50;;;8.93;53.52
70458;BME280;57919;56.194;95.716;2022-09-21T18:38:14;99496.09;;;9.00;53.89
70458;BME280;57919;56.194;95.716;2022-09-21T18:58:32;99470.47;;;8.70;55.16
70458;BME280;57919;56.194;95.716;2022-09-21T19:08:41;99452.84;;;8.78;55.24
70458;BME280;57919;56.194;95.716;2022-09-21T19:19:06;99432.13;;;8.78;54.51
70458;BME280;57919;56.194;95.716;2022-09-21T19:29:18;99431.03;;;8.81;54.85
70458;BME280;57919;56.194;95.716;2022-09-21T19:39:25;99406.75;;;8.81;55.04
70458;BME280;57919;56.194;95.716;2022-09-21T19:49:39;99393.78;;;8.86;55.37
70458;BME280;57919;56.194;95.716;2022-09-21T19:59:43;99381.53;;;8.93;55.41
70458;BME280;57919;56.194;95.716;2022-09-21T20:20:24;99363.25;;;9.07;55.24
70458;BME280;57919;56.194;95.716;2022-09-21T20:30:29;99352.94;;;9.01;56.19
70458;BME280;57919;56.194;95.716;2022-09-21T20:40:34;99348.41;;;9.02;56.77
70458;BME280;57919;56.194;95.716;2022-09-21T20:50:36;99319.84;;;9.11;56.52
70458;BME280;57919;56.194;95.716;2022-09-21T21:00:42;99302.19;;;8.73;58.14
70458;BME280;57919;56.194;95.716;2022-09-21T21:10:45;99308.06;;;8.78;57.97
70458;BME280;57919;56.194;95.716;2022-09-21T21:20:47;99295.78;;;8.63;59.10
70458;BME280;57919;56.194;95.716;2022-09-21T21:30:53;99272.00;;;8.57;59.62
70458;BME280;57919;56.194;95.716;2022-09-21T21:40:55;99247.88;;;8.55;59.95
70458;BME280;57919;56.194;95.716;2022-09-21T21:51:02;99244.44;;;8.53;60.34
70458;BME280;57919;56.194;95.716;2022-09-21T22:01:16;99241.13;;;8.50;60.99
70458;BME280;57919;56.194;95.716;2022-09-21T22:11:24;99244.66;;;8.39;61.41
70458;BME280;57919;56.194;95.716;2022-09-21T22:21:29;99244.69;;;8.61;61.79
70458;BME280;57919;56.194;95.716;2022-09-21T22:31:35;99214.53;;;8.79;61.12
70458;BME280;57919;56.194;95.716;2022-09-21T22:41:40;99196.34;;;8.92;61.57
70458;BME280;57919;56.194;95.716;2022-09-21T22:51:42;99184.75;;;9.23;60.93
70458;BME280;57919;56.194;95.716;2022-09-21T23:01:45;99195.47;;;9.46;61.01
70458;BME280;57919;56.194;95.716;2022-09-21T23:11:49;99208.09;;;9.45;61.77
70458;BME280;57919;56.194;95.716;2022-09-21T23:21:53;99208.56;;;9.18;62.87
70458;BME280;57919;56.194;95.716;2022-09-21T23:31:55;99235.28;;;9.32;62.96
70458;BME280;57919;56.194;95.716;2022-09-21T23:41:57;99227.41;;;9.29;63.47
70458;BME280;57919;56.194;95.716;2022-09-21T23:51:59;99201.88;;;9.33;63.86
